createdAt,value
2019-06-27T00:00:24.755Z,101134.02
2019-06-27T00:02:56.629Z,101135.09
2019-06-27T00:05:27.579Z,101135.09
2019-06-27T00:07:59.362Z,101139.31
2019-06-27T00:10:34.057Z,101139.31
2019-06-27T00:13:04.860Z,101151.38
2019-06-27T00:15:36.388Z,101140.58
2019-06-27T00:18:08.028Z,101150.51
2019-06-27T00:20:39.853Z,101145.89
2019-06-27T00:23:11.786Z,101146.08
2019-06-27T00:25:43.557Z,101147.98
2019-06-27T00:28:15.294Z,101149.66
2019-06-27T00:30:47.597Z,101149.66
2019-06-27T00:33:19.227Z,101146.08
2019-06-27T00:35:52.222Z,101156.00
2019-06-27T00:38:23.760Z,101149.66
2019-06-27T00:40:55.482Z,101147.77
2019-06-27T00:43:27.292Z,101146.08
2019-06-27T00:45:58.826Z,101161.72
2019-06-27T00:48:30.446Z,101151.57
2019-06-27T00:51:02.257Z,101146.08
2019-06-27T00:53:33.857Z,101157.06
2019-06-27T00:56:05.752Z,101160.66
2019-06-27T00:58:36.425Z,101158.97
2019-06-27T01:01:08.984Z,101173.55
2019-06-27T01:03:40.567Z,101172.70
2019-06-27T01:06:12.382Z,101169.71
2019-06-27T01:08:43.760Z,101169.71
2019-06-27T01:11:15.312Z,101185.38
2019-06-27T01:13:46.799Z,101180.11
2019-06-27T01:16:18.796Z,101189.19
2019-06-27T01:18:50.263Z,101182.63
2019-06-27T01:21:21.891Z,101191.94
2019-06-27T01:23:53.474Z,101193.84
2019-06-27T01:26:24.975Z,101197.44
2019-06-27T01:28:56.735Z,101196.59
2019-06-27T01:31:27.742Z,101203.77
2019-06-27T01:33:59.507Z,101202.70
2019-06-27T01:36:31.260Z,101204.61
2019-06-27T01:39:02.836Z,101201.02
2019-06-27T01:41:34.700Z,101214.95
2019-06-27T01:44:07.293Z,101204.83
2019-06-27T01:46:39.046Z,101212.02
2019-06-27T01:49:10.811Z,101214.10
2019-06-27T01:51:42.775Z,101217.91
2019-06-27T01:54:14.378Z,101223.19
2019-06-27T01:56:46.290Z,101221.50
2019-06-27T01:59:18.736Z,101225.09
2019-06-27T02:01:49.493Z,101225.94
2019-06-27T02:04:20.985Z,101222.34
2019-06-27T02:06:53.280Z,101230.59
2019-06-27T02:09:25.393Z,101230.59
2019-06-27T02:11:57.016Z,101236.08
2019-06-27T02:14:38.492Z,101236.08
2019-06-27T02:17:10.313Z,101238.83
2019-06-27T02:19:42.142Z,101237.98
2019-06-27T02:22:13.779Z,101241.39
2019-06-27T02:24:45.382Z,101247.06
2019-06-27T02:27:17.101Z,101236.08
2019-06-27T02:29:48.969Z,101237.80
2019-06-27T02:32:20.568Z,101230.59
2019-06-27T02:34:52.219Z,101247.73
2019-06-27T02:37:23.886Z,101247.73
2019-06-27T02:39:55.393Z,101251.31
2019-06-27T02:42:26.905Z,101251.13
2019-06-27T02:44:58.405Z,101253.03
2019-06-27T02:47:29.830Z,101250.29
2019-06-27T02:50:01.443Z,101242.89
2019-06-27T02:52:33.141Z,101245.64
2019-06-27T02:55:04.693Z,101252.16
2019-06-27T02:57:35.339Z,101259.38
2019-06-27T03:00:07.002Z,101259.38
2019-06-27T03:02:39.102Z,101273.77
2019-06-27T03:05:11.140Z,101265.70
2019-06-27T03:07:43.231Z,101270.36
2019-06-27T03:10:15.219Z,101276.70
2019-06-27T03:12:47.125Z,101268.45
2019-06-27T03:15:18.675Z,101276.70
2019-06-27T03:17:49.450Z,101279.45
2019-06-27T03:20:20.992Z,101275.86
2019-06-27T03:22:52.481Z,101283.04
2019-06-27T03:25:24.110Z,101285.78
2019-06-27T03:27:55.668Z,101283.04
2019-06-27T03:30:26.490Z,101281.35
2019-06-27T03:32:58.098Z,101277.10
2019-06-27T03:35:29.781Z,101277.10
2019-06-27T03:38:01.436Z,101281.35
2019-06-27T03:40:32.775Z,101286.84
2019-06-27T03:43:04.316Z,101288.53
2019-06-27T03:45:35.878Z,101288.53
2019-06-27T03:48:07.558Z,101293.19
2019-06-27T03:50:39.363Z,101299.52
2019-06-27T03:53:11.047Z,101299.52
2019-06-27T03:55:42.359Z,101291.28
2019-06-27T04:00:59.983Z,101292.08
2019-06-27T04:03:31.520Z,101290.25
2019-06-27T04:06:02.988Z,101283.04
2019-06-27T04:08:34.518Z,101294.87
2019-06-27T04:11:05.984Z,101295.75
2019-06-27T04:13:37.457Z,101299.52
2019-06-27T04:16:09.227Z,101305.02
2019-06-27T04:18:40.710Z,101307.11
2019-06-27T04:21:11.698Z,101301.42
2019-06-27T04:23:43.222Z,101296.77
2019-06-27T04:26:14.722Z,101291.28
2019-06-27T04:28:46.260Z,101293.19
2019-06-27T04:31:17.782Z,101295.75
2019-06-27T04:33:49.381Z,101297.84
2019-06-27T04:36:20.830Z,101304.17
2019-06-27T04:38:52.628Z,101302.27
2019-06-27T04:41:24.193Z,101300.37
2019-06-27T04:43:55.764Z,101295.75
2019-06-27T04:46:27.348Z,101310.33
2019-06-27T04:48:58.794Z,101304.17
2019-06-27T04:51:30.608Z,101310.33
2019-06-27T04:54:02.218Z,101295.27
2019-06-27T04:56:33.697Z,101295.27
2019-06-27T04:59:04.594Z,101312.23
2019-06-27T05:01:36.623Z,101308.35
2019-06-27T05:04:08.723Z,101304.50
2019-06-27T05:06:40.679Z,101304.50
2019-06-27T05:09:11.725Z,101308.75
2019-06-27T05:11:42.567Z,101308.75
2019-06-27T05:14:14.184Z,101314.91
2019-06-27T05:16:45.711Z,101314.91
2019-06-27T05:19:16.485Z,101329.75
2019-06-27T05:21:48.785Z,101323.23
2019-06-27T05:24:20.545Z,101322.34
2019-06-27T05:26:52.302Z,101328.72
2019-06-27T05:29:24.374Z,101330.81
2019-06-27T05:31:56.278Z,101331.47
2019-06-27T05:34:27.799Z,101331.66
2019-06-27T05:36:59.819Z,101332.49
2019-06-27T05:39:31.785Z,101330.81
2019-06-27T05:42:03.553Z,101326.16
2019-06-27T05:44:35.226Z,101323.99
2019-06-27T05:47:06.811Z,101323.99
2019-06-27T05:49:38.277Z,101333.34
2019-06-27T05:52:10.374Z,101334.39
2019-06-27T05:54:42.294Z,101337.80
2019-06-27T05:57:13.845Z,101341.39
2019-06-27T05:59:45.384Z,101345.46
2019-06-27T06:02:17.055Z,101339.75
2019-06-27T06:04:48.773Z,101346.48
2019-06-27T06:07:19.941Z,101342.31
2019-06-27T06:09:54.294Z,101344.41
2019-06-27T06:12:26.299Z,101346.09
2019-06-27T06:14:57.808Z,101349.50
2019-06-27T06:17:29.603Z,101344.48
2019-06-27T06:20:01.377Z,101346.02
2019-06-27T06:22:33.742Z,101346.02
2019-06-27T06:25:05.559Z,101354.26
2019-06-27T06:27:37.744Z,101362.69
2019-06-27T06:30:08.596Z,101362.69
2019-06-27T06:32:40.354Z,101352.13
2019-06-27T06:35:12.298Z,101352.13
2019-06-27T06:37:44.038Z,101356.64
2019-06-27T06:40:16.435Z,101361.95
2019-06-27T06:42:48.772Z,101361.95
2019-06-27T06:45:20.601Z,101365.36
2019-06-27T06:47:52.343Z,101361.95
2019-06-27T06:50:24.057Z,101361.95
2019-06-27T06:52:56.319Z,101366.39
2019-06-27T06:55:28.067Z,101354.55
2019-06-27T06:57:59.779Z,101359.87
2019-06-27T07:00:31.351Z,101356.05
2019-06-27T07:03:03.302Z,101362.61
2019-06-27T07:05:40.622Z,101356.05
2019-06-27T07:08:12.381Z,101347.37
2019-06-27T07:10:55.695Z,101347.37
2019-06-27T07:13:27.477Z,101351.80
2019-06-27T07:15:59.610Z,101355.21
2019-06-27T07:18:33.883Z,101359.47
2019-06-27T07:21:05.784Z,101359.47
2019-06-27T07:24:53.804Z,101356.16
2019-06-27T07:27:27.780Z,101356.72
2019-06-27T07:29:59.348Z,101352.06
2019-06-27T07:32:31.295Z,101352.06
2019-06-27T07:35:03.005Z,101354.63
2019-06-27T07:37:34.750Z,101353.56
2019-06-27T07:40:09.513Z,101351.00
2019-06-27T07:42:41.298Z,101359.24
2019-06-27T07:45:13.311Z,101355.65
2019-06-27T07:47:44.900Z,101356.31
2019-06-27T07:50:17.350Z,101359.05
2019-06-27T07:52:49.054Z,101356.50
2019-06-27T07:55:20.745Z,101358.62
2019-06-27T07:57:52.815Z,101356.50
2019-06-27T08:00:24.838Z,101351.22
2019-06-27T08:02:56.812Z,101345.91
2019-06-27T08:05:28.367Z,101348.87
2019-06-27T08:08:00.338Z,101345.06
2019-06-27T08:10:31.894Z,101345.91
2019-06-27T08:13:03.763Z,101338.16
2019-06-27T08:15:34.493Z,101334.57
2019-06-27T08:18:06.462Z,101340.22
2019-06-27T08:20:38.065Z,101335.86
2019-06-27T08:23:10.254Z,101331.77
2019-06-27T08:25:42.365Z,101330.84
2019-06-27T08:28:14.059Z,101330.41
2019-06-27T08:30:45.763Z,101326.16
2019-06-27T08:33:17.463Z,101321.31
2019-06-27T08:35:49.402Z,101318.90
2019-06-27T08:38:21.750Z,101321.86
2019-06-27T08:40:52.478Z,101322.77
2019-06-27T08:43:24.813Z,101328.56
2019-06-27T08:45:56.389Z,101330.69
2019-06-27T08:48:28.297Z,101320.67
2019-06-27T08:51:00.299Z,101322.27
2019-06-27T08:53:32.286Z,101318.11
2019-06-27T08:56:03.970Z,101316.78
2019-06-27T08:58:35.334Z,101319.04
2019-06-27T09:01:06.774Z,101314.84
2019-06-27T09:03:38.722Z,101317.66
2019-06-27T09:06:10.352Z,101323.82
2019-06-27T09:08:41.900Z,101312.22
2019-06-27T09:11:13.741Z,101321.13
2019-06-27T09:13:45.711Z,101314.60
2019-06-27T09:16:17.253Z,101314.60
2019-06-27T09:18:49.405Z,101311.37
2019-06-27T09:21:21.013Z,101322.58
2019-06-27T09:23:52.785Z,101310.67
2019-06-27T09:26:24.472Z,101304.12
2019-06-27T09:28:56.292Z,101309.88
2019-06-27T09:31:28.250Z,101302.95
2019-06-27T09:34:00.635Z,101310.98
2019-06-27T09:36:32.335Z,101292.37
2019-06-27T09:39:04.291Z,101292.37
2019-06-27T09:41:36.310Z,101298.16
2019-06-27T09:44:07.934Z,101307.86
2019-06-27T09:46:39.734Z,101299.81
2019-06-27T09:49:10.448Z,101305.30
2019-06-27T09:51:42.418Z,101294.31
2019-06-27T09:54:14.370Z,101300.21
2019-06-27T09:56:46.372Z,101304.86
2019-06-27T09:59:18.017Z,101295.74
2019-06-27T10:01:49.745Z,101291.31
2019-06-27T10:04:20.491Z,101296.80
2019-06-27T10:06:52.301Z,101298.89
2019-06-27T10:09:24.341Z,101290.86
2019-06-27T10:11:56.053Z,101294.64
2019-06-27T10:14:27.755Z,101303.09
2019-06-27T10:16:58.894Z,101292.11
2019-06-27T10:19:30.842Z,101280.46
2019-06-27T10:22:02.577Z,101284.50
2019-06-27T10:24:34.220Z,101272.67
2019-06-27T10:27:05.753Z,101272.67
2019-06-27T10:29:36.626Z,101279.48
2019-06-27T10:32:07.441Z,101281.64
2019-06-27T10:34:39.321Z,101281.64
2019-06-27T10:37:10.826Z,101277.91
2019-06-27T10:39:42.442Z,101275.86
2019-06-27T10:42:14.242Z,101280.77
2019-06-27T10:44:45.880Z,101279.11
2019-06-27T10:47:17.397Z,101278.05
2019-06-27T10:49:48.797Z,101274.28
2019-06-27T10:52:20.378Z,101281.45
2019-06-27T10:54:52.231Z,101280.39
2019-06-27T10:57:23.730Z,101269.41
2019-06-27T10:59:55.322Z,101265.44
2019-06-27T11:02:26.724Z,101268.41
2019-06-27T11:04:58.297Z,101262.91
2019-06-27T11:07:29.839Z,101257.01
2019-06-27T11:10:01.390Z,101267.16
2019-06-27T11:12:32.802Z,101264.59
2019-06-27T11:15:04.432Z,101258.25
2019-06-27T11:17:35.846Z,101268.19
2019-06-27T11:20:07.680Z,101253.42
2019-06-27T11:22:38.382Z,101257.20
2019-06-27T11:25:12.839Z,101247.70
2019-06-27T11:27:44.409Z,101244.33
2019-06-27T11:30:17.552Z,101242.61
2019-06-27T11:32:50.083Z,101246.02
2019-06-27T11:35:22.914Z,101252.58
2019-06-27T11:37:54.734Z,101252.17
2019-06-27T11:40:26.278Z,101246.86
2019-06-27T11:42:57.750Z,101234.83
2019-06-27T11:45:29.435Z,101250.45
2019-06-27T11:48:01.285Z,101246.67
2019-06-27T11:50:33.183Z,101240.11
2019-06-27T11:53:05.180Z,101230.37
2019-06-27T11:55:36.704Z,101229.52
2019-06-27T11:58:07.432Z,101235.67
2019-06-27T12:00:39.256Z,101235.45
2019-06-27T12:03:10.672Z,101237.36
2019-06-27T12:05:41.330Z,101226.59
2019-06-27T12:08:12.832Z,101233.77
2019-06-27T12:10:44.348Z,101229.12
2019-06-27T12:13:15.840Z,101220.88
2019-06-27T12:15:51.349Z,101235.27
2019-06-27T12:18:20.994Z,101225.34
2019-06-27T12:20:52.718Z,101224.47
2019-06-27T12:23:23.364Z,101219.63
2019-06-27T12:25:54.984Z,101223.63
2019-06-27T12:28:26.523Z,101222.78
2019-06-27T12:30:58.132Z,101219.84
2019-06-27T12:33:29.710Z,101214.34
2019-06-27T12:36:00.382Z,101217.94
2019-06-27T12:40:42.267Z,101213.28
2019-06-27T12:43:14.647Z,101213.28
2019-06-27T12:45:46.589Z,101210.85
2019-06-27T12:48:17.301Z,101212.19
2019-06-27T12:50:48.795Z,101204.38
2019-06-27T12:53:20.285Z,101205.88
2019-06-27T12:55:51.790Z,101198.06
2019-06-27T12:58:23.261Z,101189.82
2019-06-27T13:00:54.790Z,101191.53
2019-06-27T13:03:26.398Z,101192.56
2019-06-27T13:05:57.805Z,101178.45
2019-06-27T13:08:29.337Z,101169.79
2019-06-27T13:11:00.795Z,101181.02
2019-06-27T13:13:32.326Z,101178.47
2019-06-27T13:16:04.271Z,101176.36
2019-06-27T13:18:36.127Z,101182.70
2019-06-27T13:21:07.685Z,101180.61
2019-06-27T13:23:39.695Z,101191.61
2019-06-27T13:26:11.315Z,101178.70
2019-06-27T13:28:43.042Z,101179.55
2019-06-27T13:31:14.692Z,101174.05
2019-06-27T13:33:45.878Z,101171.11
2019-06-27T13:36:17.462Z,101174.69
2019-06-27T13:38:49.032Z,101169.61
2019-06-27T13:41:20.320Z,101171.30
2019-06-27T13:43:51.842Z,101173.02
2019-06-27T13:46:23.628Z,101157.17
2019-06-27T13:48:55.403Z,101140.44
2019-06-27T13:51:28.087Z,101140.44
2019-06-27T13:53:59.770Z,101157.17
2019-06-27T13:56:31.369Z,101145.30
2019-06-27T13:59:03.552Z,101146.36
2019-06-27T14:01:35.330Z,101143.19
2019-06-27T14:04:07.026Z,101143.19
2019-06-27T14:06:41.259Z,101156.10
2019-06-27T14:09:22.279Z,101149.77
2019-06-27T14:11:45.777Z,101139.98
2019-06-27T14:14:17.594Z,101134.48
2019-06-27T14:16:49.509Z,101141.70
2019-06-27T14:19:21.302Z,101141.70
2019-06-27T14:21:52.790Z,101128.98
2019-06-27T14:24:24.666Z,101137.88
2019-06-27T14:26:55.935Z,101132.19
2019-06-27T14:29:27.895Z,101126.47
2019-06-27T14:32:00.476Z,101128.19
2019-06-27T14:34:33.284Z,101121.81
2019-06-27T14:37:05.297Z,101126.47
2019-06-27T14:39:37.357Z,101122.88
2019-06-27T14:42:09.306Z,101125.44
2019-06-27T14:44:41.140Z,101123.52
2019-06-27T14:47:12.827Z,101113.56
2019-06-27T14:49:45.327Z,101115.28
2019-06-27T14:52:17.061Z,101117.19
2019-06-27T14:54:49.354Z,101109.78
2019-06-27T14:57:21.569Z,101120.97
2019-06-27T14:59:53.263Z,101107.83
2019-06-27T15:02:24.810Z,101107.83
2019-06-27T15:04:56.825Z,101112.72
2019-06-27T15:07:29.301Z,101118.03
2019-06-27T15:10:01.291Z,101114.45
2019-06-27T15:12:35.753Z,101125.87
2019-06-27T15:15:07.139Z,101102.42
2019-06-27T15:17:38.889Z,101107.72
2019-06-27T15:20:10.813Z,101097.98
2019-06-27T15:22:42.795Z,101108.53
2019-06-27T15:25:14.615Z,101099.66
2019-06-27T15:27:46.192Z,101100.28
2019-06-27T15:30:18.846Z,101099.44
2019-06-27T15:32:51.318Z,101093.94
2019-06-27T15:35:22.963Z,101098.59
2019-06-27T15:37:54.872Z,101095.62
2019-06-27T15:40:27.562Z,101083.36
2019-06-27T15:42:59.377Z,101088.02
2019-06-27T15:45:32.027Z,101088.02
2019-06-27T15:48:03.804Z,101084.62
2019-06-27T15:50:35.986Z,101086.30
2019-06-27T15:53:07.948Z,101082.94
2019-06-27T15:55:39.830Z,101092.44
2019-06-27T15:58:11.809Z,101087.78
2019-06-27T16:00:43.862Z,101079.12
2019-06-27T16:03:15.807Z,101080.80
2019-06-27T16:05:47.611Z,101071.29
2019-06-27T16:08:19.468Z,101071.94
2019-06-27T16:10:51.305Z,101071.94
2019-06-27T16:13:23.016Z,101074.69
2019-06-27T16:15:54.807Z,101063.69
2019-06-27T16:18:26.448Z,101070.23
2019-06-27T16:20:58.227Z,101071.94
2019-06-27T16:23:30.258Z,101073.63
2019-06-27T16:26:02.726Z,101070.87
2019-06-27T16:28:34.319Z,101073.63
2019-06-27T16:31:06.237Z,101074.69
2019-06-27T16:33:37.892Z,101073.63
2019-06-27T16:36:24.447Z,101070.23
2019-06-27T16:38:43.208Z,101072.36
2019-06-27T16:41:15.069Z,101063.92
2019-06-27T16:43:49.244Z,101074.50
2019-06-27T16:46:21.127Z,101066.45
2019-06-27T16:48:52.850Z,101078.28
2019-06-27T16:51:24.649Z,101068.13
2019-06-27T16:53:56.656Z,101078.28
2019-06-27T16:56:28.020Z,101076.59
2019-06-27T16:58:59.973Z,101071.52
2019-06-27T17:01:31.804Z,101076.38
2019-06-27T17:04:03.744Z,101079.12
2019-06-27T17:06:42.036Z,101075.72
2019-06-27T17:09:09.692Z,101080.38
2019-06-27T17:11:40.564Z,101079.54
2019-06-27T17:14:12.771Z,101082.29
2019-06-27T17:16:44.828Z,101082.29
2019-06-27T17:19:16.912Z,101078.70
2019-06-27T17:21:48.794Z,101079.54
2019-06-27T17:24:20.780Z,101078.89
2019-06-27T17:26:57.074Z,101073.20
2019-06-27T17:29:28.974Z,101074.23
2019-06-27T17:32:00.798Z,101086.30
2019-06-27T17:34:32.763Z,101091.80
2019-06-27T17:37:04.818Z,101090.08
2019-06-27T17:39:36.774Z,101086.72
2019-06-27T17:42:07.637Z,101095.58
2019-06-27T17:44:38.626Z,101090.95
2019-06-27T17:47:10.831Z,101091.98
2019-06-27T17:49:42.820Z,101091.98
2019-06-27T17:52:16.264Z,101088.40
2019-06-27T17:54:48.740Z,101089.47
2019-06-27T17:57:20.274Z,101092.22
2019-06-27T17:59:52.261Z,101091.34
2019-06-27T18:02:24.269Z,101089.23
2019-06-27T18:04:56.547Z,101089.23
2019-06-27T18:07:28.940Z,101096.45
2019-06-27T18:10:00.775Z,101092.41
2019-06-27T18:12:32.276Z,101097.48
2019-06-27T18:15:04.309Z,101098.55
2019-06-27T18:17:36.319Z,101100.23
2019-06-27T18:20:08.770Z,101103.20
2019-06-27T18:22:40.861Z,101100.66
2019-06-27T18:25:12.776Z,101097.06
2019-06-27T18:27:44.790Z,101098.97
2019-06-27T18:30:15.688Z,101098.09
2019-06-27T18:32:46.673Z,101096.22
2019-06-27T18:35:18.082Z,101097.25
2019-06-27T18:37:49.840Z,101097.25
2019-06-27T18:40:21.773Z,101098.09
2019-06-27T18:42:52.933Z,101100.00
2019-06-27T18:45:24.762Z,101097.25
2019-06-27T18:47:55.691Z,101097.25
2019-06-27T18:50:27.653Z,101098.09
2019-06-27T18:52:58.653Z,101104.01
2019-06-27T18:55:29.647Z,101106.15
2019-06-27T18:58:00.704Z,101106.15
2019-06-27T19:00:31.707Z,101099.35
2019-06-27T19:03:02.630Z,101107.83
2019-06-27T19:05:33.630Z,101113.14
2019-06-27T19:08:05.775Z,101098.32
2019-06-27T19:10:37.609Z,101098.32
2019-06-27T19:13:09.687Z,101117.97
2019-06-27T19:15:40.661Z,101117.97
2019-06-27T19:18:30.255Z,101128.52
2019-06-27T19:21:04.392Z,101128.52
2019-06-27T19:23:48.470Z,101136.99
2019-06-27T19:26:20.306Z,101137.84
2019-06-27T19:28:52.304Z,101156.89
2019-06-27T19:31:24.037Z,101157.08
2019-06-27T19:33:55.748Z,101161.55
2019-06-27T19:36:26.491Z,101163.45
2019-06-27T19:38:58.309Z,101164.29
2019-06-27T19:41:30.306Z,101160.70
2019-06-27T19:44:02.071Z,101185.22
2019-06-27T19:46:33.754Z,101171.70
2019-06-27T19:49:04.528Z,101185.44
2019-06-27T19:51:36.368Z,101164.24
2019-06-27T19:54:08.054Z,101164.24
2019-06-27T19:56:39.754Z,101191.12
2019-06-27T19:59:11.486Z,101189.44
2019-06-27T20:01:43.146Z,101191.31
2019-06-27T20:04:14.800Z,101190.94
2019-06-27T20:06:46.740Z,101199.61
2019-06-27T20:09:17.517Z,101195.18
2019-06-27T20:11:49.424Z,101201.71
2019-06-27T20:14:21.082Z,101197.47
2019-06-27T20:16:52.748Z,101194.72
2019-06-27T20:19:24.436Z,101198.31
2019-06-27T20:21:56.300Z,101192.38
2019-06-27T20:24:28.299Z,101197.03
2019-06-27T20:26:59.862Z,101198.72
2019-06-27T20:29:31.637Z,101209.06
2019-06-27T20:32:03.377Z,101201.22
2019-06-27T20:34:38.478Z,101201.22
2019-06-27T20:37:08.767Z,101201.69
2019-06-27T20:39:39.620Z,101202.53
2019-06-27T20:42:11.626Z,101210.78
2019-06-27T20:44:43.487Z,101210.78
2019-06-27T20:47:15.293Z,101209.94
2019-06-27T20:49:46.837Z,101216.69
2019-06-27T20:52:18.544Z,101222.80
2019-06-27T20:54:50.315Z,101225.55
2019-06-27T20:57:22.164Z,101232.55
2019-06-27T20:59:53.795Z,101228.30
2019-06-27T21:02:25.792Z,101235.52
2019-06-27T21:04:57.594Z,101229.17
2019-06-27T21:07:29.396Z,101221.53
2019-06-27T21:10:01.012Z,101221.53
2019-06-27T21:12:32.746Z,101229.55
2019-06-27T21:15:03.623Z,101229.55
2019-06-27T21:17:35.360Z,101233.80
2019-06-27T21:20:07.396Z,101226.62
2019-06-27T21:22:39.481Z,101234.86
2019-06-27T21:25:11.406Z,101244.17
2019-06-27T21:27:43.754Z,101248.60
2019-06-27T21:30:15.480Z,101245.02
2019-06-27T21:32:48.440Z,101252.41
2019-06-27T21:35:20.457Z,101236.70
2019-06-27T21:37:52.285Z,101236.70
2019-06-27T21:40:23.905Z,101252.82
2019-06-27T21:42:55.745Z,101257.25
2019-06-27T21:45:27.060Z,101262.75
2019-06-27T21:47:58.891Z,101253.02
2019-06-27T21:50:30.765Z,101259.34
2019-06-27T21:53:02.764Z,101265.91
2019-06-27T21:55:34.609Z,101263.16
2019-06-27T21:58:06.116Z,101274.16
2019-06-27T22:00:39.703Z,101274.16
2019-06-27T22:03:10.596Z,101278.59
2019-06-27T22:05:42.897Z,101274.16
2019-06-27T22:08:15.013Z,101280.49
2019-06-27T22:10:46.790Z,101279.84
2019-06-27T22:13:18.649Z,101281.34
2019-06-27T22:15:50.349Z,101280.05
2019-06-27T22:18:22.010Z,101280.05
2019-06-27T22:20:53.798Z,101289.98
2019-06-27T22:23:25.709Z,101296.55
2019-06-27T22:25:56.598Z,101292.73
2019-06-27T22:28:28.378Z,101283.64
2019-06-27T22:31:00.077Z,101283.64
2019-06-27T22:33:31.742Z,101291.67
2019-06-27T22:36:02.438Z,101293.39
2019-06-27T22:38:51.496Z,101300.98
2019-06-27T22:41:40.759Z,101296.14
2019-06-27T22:44:29.102Z,101297.39
2019-06-27T22:47:18.299Z,101303.73
2019-06-27T22:49:49.319Z,101303.91
2019-06-27T22:52:34.627Z,101303.06
2019-06-27T22:55:05.715Z,101289.52
2019-06-27T22:57:36.470Z,101289.52
2019-06-27T23:00:08.345Z,101303.91
2019-06-27T23:02:40.478Z,101303.91
2019-06-27T23:05:12.252Z,101309.41
2019-06-27T23:07:43.811Z,101309.41
2019-06-27T23:10:15.737Z,101310.28
2019-06-27T23:12:46.618Z,101302.88
2019-06-27T23:15:18.338Z,101298.41
2019-06-27T23:17:50.551Z,101298.41
2019-06-27T23:20:22.325Z,101303.06
2019-06-27T23:22:53.904Z,101303.06
2019-06-27T23:25:25.729Z,101307.54
2019-06-27T23:27:56.470Z,101307.72
2019-06-27T23:30:28.360Z,101300.03
2019-06-27T23:33:00.356Z,101300.03
2019-06-27T23:35:32.226Z,101304.13
2019-06-27T23:38:03.753Z,101312.38
2019-06-27T23:40:34.527Z,101306.88
2019-06-27T23:43:06.296Z,101316.34
2019-06-27T23:45:38.733Z,101316.34
2019-06-27T23:48:10.869Z,101319.75
2019-06-27T23:50:42.400Z,101332.61
2019-06-27T23:53:13.824Z,101329.70
2019-06-27T23:55:45.756Z,101322.49
2019-06-27T23:58:16.490Z,101318.72
